Time;durP1;ratioP1;P1;durP2;ratioP2;P2;SDS_P1;SDS_P2;PMS_P1;PMS_P2;Temp;Humidity;BMP_temperature;BMP_pressure;BME280_temperature;BME280_humidity;BME280_pressure;Samples;Min_cycle;Max_cycle;Signal;HPM_P1;HPM_P2
2020/12/18 00:00:32;;;;;;;7.70;4.50;;;;;;;;;;4974629;28;20051;-84
2020/12/18 00:02:58;;;;;;;6.68;4.75;;;;;;;;;;4980627;28;20054;-84
2020/12/18 00:05:24;;;;;;;7.45;4.90;;;;;;;;;;4979656;28;20042;-85
2020/12/18 00:07:50;;;;;;;6.50;4.72;;;;;;;;;;4978083;28;20526;-83
2020/12/18 00:10:17;;;;;;;7.18;4.75;;;;;;;;;;4979992;28;20078;-85
2020/12/18 00:12:43;;;;;;;11.60;5.53;;;;;;;;;;4982490;28;20066;-85
2020/12/18 00:15:09;;;;;;;7.75;4.45;;;;;;;;;;4977377;28;20054;-84
2020/12/18 00:17:35;;;;;;;9.15;5.20;;;;;;;;;;4979305;28;20056;-85
2020/12/18 00:20:05;;;;;;;8.45;5.15;;;;;;;;;;4979328;28;20053;-87
2020/12/18 00:22:32;;;;;;;7.50;5.35;;;;;;;;;;4981769;28;20057;-89
2020/12/18 00:24:58;;;;;;;7.88;4.68;;;;;;;;;;4981678;28;20045;-87
2020/12/18 00:27:24;;;;;;;7.82;5.20;;;;;;;;;;4976423;28;20057;-92
2020/12/18 00:29:50;;;;;;;9.23;4.90;;;;;;;;;;4982560;28;20059;-89
2020/12/18 00:32:16;;;;;;;9.98;5.07;;;;;;;;;;4978931;28;20053;-88
2020/12/18 00:34:42;;;;;;;7.30;5.35;;;;;;;;;;4984368;28;20667;-86
2020/12/18 00:37:09;;;;;;;8.10;4.65;;;;;;;;;;4979150;28;20122;-89
2020/12/18 00:39:35;;;;;;;7.25;4.63;;;;;;;;;;4981513;28;20073;-87
2020/12/18 00:42:01;;;;;;;7.22;4.35;;;;;;;;;;4982557;28;20086;-89
2020/12/18 00:44:28;;;;;;;8.13;5.18;;;;;;;;;;4985228;28;20059;-89
2020/12/18 00:46:54;;;;;;;8.88;5.05;;;;;;;;;;4977308;28;20052;-90
2020/12/18 00:49:20;;;;;;;7.57;4.88;;;;;;;;;;4977123;28;20053;-90
2020/12/18 00:51:50;;;;;;;7.68;5.43;;;;;;;;;;4980365;28;20054;-88
2020/12/18 00:54:16;;;;;;;10.00;4.90;;;;;;;;;;4981676;28;20039;-88
2020/12/18 00:56:43;;;;;;;7.43;4.60;;;;;;;;;;4975971;28;20054;-86
2020/12/18 00:59:09;;;;;;;8.48;5.22;;;;;;;;;;4979248;28;20138;-86
2020/12/18 01:01:35;;;;;;;9.30;4.90;;;;;;;;;;4978378;28;20049;-85
2020/12/18 01:04:04;;;;;;;7.18;4.75;;;;;;;;;;4972357;28;20098;-86
2020/12/18 01:06:30;;;;;;;11.73;5.43;;;;;;;;;;4979883;28;20046;-85
2020/12/18 01:08:56;;;;;;;9.82;4.78;;;;;;;;;;4981291;28;20058;-85
2020/12/18 01:11:26;;;;;;;8.85;5.28;;;;;;;;;;4977751;28;20182;-88
2020/12/18 01:13:52;;;;;;;6.78;4.35;;;;;;;;;;4980866;28;20405;-88
2020/12/18 01:16:18;;;;;;;8.80;4.43;;;;;;;;;;4979571;28;20046;-88
2020/12/18 01:18:44;;;;;;;6.80;4.60;;;;;;;;;;4979322;28;20057;-86
2020/12/18 01:21:24;;;;;;;8.27;4.78;;;;;;;;;;4974799;28;20038;-86
2020/12/18 01:23:53;;;;;;;9.57;4.95;;;;;;;;;;4974061;28;20047;-86
2020/12/18 01:26:21;;;;;;;8.20;4.88;;;;;;;;;;4981374;28;20057;-91
2020/12/18 01:28:48;;;;;;;6.53;4.70;;;;;;;;;;4977117;28;20054;-92
2020/12/18 01:31:14;;;;;;;7.07;4.35;;;;;;;;;;4983905;28;20089;-92
2020/12/18 01:33:40;;;;;;;7.28;4.70;;;;;;;;;;4974641;28;20054;-91
2020/12/18 01:36:08;;;;;;;7.10;4.38;;;;;;;;;;4973690;28;20456;-93
2020/12/18 01:38:34;;;;;;;7.72;4.70;;;;;;;;;;4975923;28;20038;-93
2020/12/18 01:41:01;;;;;;;9.55;4.97;;;;;;;;;;4983737;28;20503;-92
2020/12/18 01:43:27;;;;;;;7.35;4.70;;;;;;;;;;4982572;28;20058;-94
2020/12/18 01:45:54;;;;;;;8.35;4.43;;;;;;;;;;4979950;28;20055;-92
2020/12/18 01:48:20;;;;;;;8.68;4.85;;;;;;;;;;4977246;28;20216;-94
2020/12/18 01:50:46;;;;;;;5.65;4.15;;;;;;;;;;4980684;28;20050;-92
2020/12/18 01:53:15;;;;;;;7.18;4.40;;;;;;;;;;4972116;28;20057;-91
2020/12/18 01:55:41;;;;;;;6.63;4.65;;;;;;;;;;4974069;28;20489;-91
2020/12/18 01:58:08;;;;;;;7.90;4.38;;;;;;;;;;4981090;28;20061;-91
2020/12/18 02:00:35;;;;;;;6.88;4.18;;;;;;;;;;4980507;28;20046;-92
2020/12/18 02:03:01;;;;;;;6.55;4.35;;;;;;;;;;4980289;28;20186;-89
2020/12/18 02:05:27;;;;;;;7.68;4.75;;;;;;;;;;4978338;28;20058;-88
2020/12/18 02:08:05;;;;;;;6.15;4.25;;;;;;;;;;4978278;28;20480;-89
2020/12/18 02:10:32;;;;;;;8.15;4.43;;;;;;;;;;4980258;28;20145;-90
2020/12/18 02:12:59;;;;;;;6.25;3.85;;;;;;;;;;4980081;28;20049;-91
2020/12/18 02:15:25;;;;;;;7.00;4.28;;;;;;;;;;4976764;28;20459;-90
2020/12/18 02:17:52;;;;;;;7.05;4.40;;;;;;;;;;4974298;28;20051;-90
2020/12/18 02:20:18;;;;;;;12.45;5.50;;;;;;;;;;4977231;28;20053;-91
2020/12/18 02:22:45;;;;;;;6.82;3.58;;;;;;;;;;4976935;28;20043;-90
2020/12/18 02:25:14;;;;;;;6.75;4.82;;;;;;;;;;4976508;28;20051;-90
2020/12/18 02:27:40;;;;;;;6.47;4.15;;;;;;;;;;4978500;28;20054;-89
2020/12/18 02:30:10;;;;;;;6.80;4.20;;;;;;;;;;4977469;28;20051;-86
2020/12/18 02:32:36;;;;;;;6.35;4.28;;;;;;;;;;4978512;28;20046;-85
2020/12/18 02:35:03;;;;;;;5.25;4.07;;;;;;;;;;4980238;28;20053;-85
2020/12/18 02:37:30;;;;;;;6.47;4.47;;;;;;;;;;4978882;28;20404;-84
2020/12/18 02:39:59;;;;;;;8.52;5.05;;;;;;;;;;4983192;28;20042;-84
2020/12/18 02:42:25;;;;;;;7.15;4.55;;;;;;;;;;4975490;28;20065;-88
2020/12/18 02:44:51;;;;;;;7.35;4.60;;;;;;;;;;4978822;28;20051;-88
2020/12/18 02:47:17;;;;;;;7.20;4.20;;;;;;;;;;4982097;28;20051;-88
2020/12/18 02:49:44;;;;;;;6.97;4.05;;;;;;;;;;4979052;28;20046;-90
2020/12/18 02:52:20;;;;;;;6.78;4.60;;;;;;;;;;4978139;28;20485;-91
2020/12/18 02:54:46;;;;;;;8.73;4.28;;;;;;;;;;4982809;28;20055;-93
2020/12/18 02:57:13;;;;;;;5.97;3.45;;;;;;;;;;4981207;28;20480;-90
2020/12/18 02:59:39;;;;;;;5.47;3.47;;;;;;;;;;4980799;28;20488;-91
2020/12/18 03:02:08;;;;;;;6.73;3.87;;;;;;;;;;4980994;28;20472;-82
2020/12/18 03:04:36;;;;;;;6.05;3.83;;;;;;;;;;4978682;28;20047;-81
2020/12/18 03:07:02;;;;;;;6.10;3.55;;;;;;;;;;4978726;28;20070;-83
2020/12/18 03:09:29;;;;;;;7.60;4.65;;;;;;;;;;4985118;28;20514;-84
2020/12/18 03:11:55;;;;;;;5.90;4.00;;;;;;;;;;4983823;28;20078;-83
2020/12/18 03:14:22;;;;;;;5.80;3.72;;;;;;;;;;4983957;28;20042;-83
2020/12/18 03:16:48;;;;;;;5.68;3.65;;;;;;;;;;4978178;28;20047;-84
2020/12/18 03:19:14;;;;;;;5.32;3.75;;;;;;;;;;4976850;28;20054;-83
2020/12/18 03:21:40;;;;;;;5.95;4.15;;;;;;;;;;4975362;28;20397;-84
2020/12/18 03:24:06;;;;;;;5.57;3.50;;;;;;;;;;4980172;28;20050;-84
2020/12/18 03:26:32;;;;;;;5.20;3.33;;;;;;;;;;4976333;28;20415;-85
2020/12/18 03:29:01;;;;;;;5.95;3.90;;;;;;;;;;4979149;28;20508;-86
2020/12/18 03:31:27;;;;;;;7.00;3.70;;;;;;;;;;4972494;28;20412;-85
2020/12/18 03:33:54;;;;;;;6.43;3.78;;;;;;;;;;4972212;28;20800;-91
2020/12/18 03:36:23;;;;;;;5.87;3.90;;;;;;;;;;4982610;28;20046;-91
2020/12/18 03:38:49;;;;;;;5.63;3.47;;;;;;;;;;4975327;28;20065;-90
2020/12/18 03:41:15;;;;;;;6.55;3.55;;;;;;;;;;4978669;28;20077;-91
2020/12/18 03:43:43;;;;;;;6.10;3.97;;;;;;;;;;4976578;28;20055;-88
2020/12/18 03:46:15;;;;;;;7.90;4.10;;;;;;;;;;4978607;28;20046;-88
2020/12/18 03:48:43;;;;;;;8.18;4.53;;;;;;;;;;4975919;28;20059;-87
2020/12/18 03:51:09;;;;;;;6.00;3.97;;;;;;;;;;4977033;28;20055;-87
2020/12/18 03:53:35;;;;;;;5.45;3.72;;;;;;;;;;4978711;28;20065;-88
2020/12/18 03:56:02;;;;;;;5.53;3.67;;;;;;;;;;4976100;28;20042;-88
2020/12/18 03:58:28;;;;;;;7.03;3.80;;;;;;;;;;4976448;28;20054;-88
2020/12/18 04:00:54;;;;;;;4.35;3.50;;;;;;;;;;4972738;28;20046;-84
2020/12/18 04:03:20;;;;;;;5.97;3.60;;;;;;;;;;4984033;28;20050;-87
2020/12/18 04:05:46;;;;;;;5.60;3.88;;;;;;;;;;4981182;28;20077;-84
2020/12/18 04:08:12;;;;;;;8.85;4.05;;;;;;;;;;4980123;28;20058;-84
2020/12/18 04:10:40;;;;;;;6.50;4.05;;;;;;;;;;4979595;28;20065;-83
2020/12/18 04:13:06;;;;;;;7.07;4.03;;;;;;;;;;4975772;28;20050;-88
2020/12/18 04:15:35;;;;;;;4.55;3.50;;;;;;;;;;4980415;28;20476;-87
2020/12/18 04:18:01;;;;;;;5.35;3.85;;;;;;;;;;4975928;28;20065;-90
2020/12/18 04:20:27;;;;;;;6.32;3.55;;;;;;;;;;4975889;28;20137;-86
2020/12/18 04:22:53;;;;;;;5.72;3.60;;;;;;;;;;4974929;28;20489;-89
2020/12/18 04:25:22;;;;;;;5.28;3.53;;;;;;;;;;4976730;28;20504;-82
2020/12/18 04:27:48;;;;;;;6.65;3.47;;;;;;;;;;4978779;28;20405;-84
2020/12/18 04:30:14;;;;;;;5.30;3.13;;;;;;;;;;4976047;28;20042;-82
2020/12/18 04:32:40;;;;;;;4.20;3.20;;;;;;;;;;4975741;28;20057;-88
2020/12/18 04:35:06;;;;;;;6.20;3.47;;;;;;;;;;4974850;28;20050;-81
2020/12/18 04:37:32;;;;;;;11.60;3.70;;;;;;;;;;4979185;28;20393;-87
2020/12/18 04:39:59;;;;;;;4.65;3.20;;;;;;;;;;4982447;28;20563;-84
2020/12/18 04:42:25;;;;;;;5.95;3.90;;;;;;;;;;4974339;28;20065;-85
2020/12/18 04:44:52;;;;;;;4.97;3.50;;;;;;;;;;4977414;28;20042;-86
2020/12/18 04:47:18;;;;;;;5.25;3.05;;;;;;;;;;4979508;28;20060;-86
2020/12/18 04:49:45;;;;;;;4.95;3.30;;;;;;;;;;4981416;28;20039;-85
2020/12/18 04:52:12;;;;;;;6.38;3.88;;;;;;;;;;4975038;28;20056;-91
2020/12/18 04:54:41;;;;;;;5.97;3.15;;;;;;;;;;4980849;28;20108;-92
2020/12/18 04:57:08;;;;;;;5.82;3.22;;;;;;;;;;4978094;28;20047;-90
2020/12/18 04:59:42;;;;;;;5.60;3.97;;;;;;;;;;4976980;28;20042;-87
2020/12/18 05:02:08;;;;;;;5.30;2.92;;;;;;;;;;4981021;28;20066;-90
2020/12/18 05:04:40;;;;;;;6.63;3.45;;;;;;;;;;4979273;28;20389;-89
2020/12/18 05:07:06;;;;;;;5.13;3.70;;;;;;;;;;4980228;28;20046;-90
2020/12/18 05:09:32;;;;;;;5.43;3.47;;;;;;;;;;4977720;28;20054;-90
2020/12/18 05:12:08;;;;;;;5.22;3.50;;;;;;;;;;4976733;28;20069;-89
2020/12/18 05:14:34;;;;;;;4.75;2.92;;;;;;;;;;4979344;28;20046;-88
2020/12/18 05:17:04;;;;;;;4.55;3.05;;;;;;;;;;4972784;28;20047;-90
2020/12/18 05:19:33;;;;;;;4.95;3.17;;;;;;;;;;4981736;28;20074;-91
2020/12/18 05:22:01;;;;;;;3.25;2.53;;;;;;;;;;4982999;28;20047;-92
2020/12/18 05:24:27;;;;;;;4.30;3.30;;;;;;;;;;4978717;28;20046;-93
2020/12/18 05:26:54;;;;;;;5.07;2.70;;;;;;;;;;4982075;28;20471;-90
2020/12/18 05:29:20;;;;;;;4.68;3.35;;;;;;;;;;4980296;28;20054;-86
2020/12/18 05:31:49;;;;;;;5.53;2.80;;;;;;;;;;4979209;28;20050;-88
2020/12/18 05:34:15;;;;;;;4.75;3.15;;;;;;;;;;4972156;28;20055;-89
2020/12/18 05:36:42;;;;;;;5.88;2.65;;;;;;;;;;4975976;28;20543;-89
2020/12/18 05:39:09;;;;;;;3.45;2.90;;;;;;;;;;4976743;28;20047;-90
2020/12/18 05:41:36;;;;;;;5.35;2.83;;;;;;;;;;4971891;28;20511;-88
2020/12/18 05:44:06;;;;;;;5.38;3.13;;;;;;;;;;4978437;28;20050;-90
2020/12/18 05:46:33;;;;;;;;;;;;;;;;;;4977179;28;20054;-91
2020/12/18 05:49:01;;;;;;;4.60;2.83;;;;;;;;;;4972448;28;19929;-84
2020/12/18 05:51:31;;;;;;;4.22;2.88;;;;;;;;;;4977564;28;20771;-79
2020/12/18 05:54:15;;;;;;;4.05;2.80;;;;;;;;;;4977570;28;20054;-84
2020/12/18 05:56:45;;;;;;;4.65;2.45;;;;;;;;;;4980205;28;20487;-84
2020/12/18 05:59:12;;;;;;;4.63;3.55;;;;;;;;;;4975432;28;20507;-86
2020/12/18 06:01:39;;;;;;;5.13;2.65;;;;;;;;;;4993572;28;20050;-86
2020/12/18 06:04:12;;;;;;;4.75;2.83;;;;;;;;;;4976172;28;20055;-90
2020/12/18 06:06:40;;;;;;;4.00;2.65;;;;;;;;;;4978674;28;20076;-93
2020/12/18 06:09:07;;;;;;;4.22;2.65;;;;;;;;;;4981451;28;20054;-94
2020/12/18 06:11:34;;;;;;;5.22;2.92;;;;;;;;;;4979684;28;20530;-86
2020/12/18 06:14:01;;;;;;;3.47;2.00;;;;;;;;;;4980113;28;20411;-84
2020/12/18 06:16:28;;;;;;;4.70;2.83;;;;;;;;;;4981399;28;20042;-87
2020/12/18 06:19:02;;;;;;;4.63;2.85;;;;;;;;;;4979812;28;20050;-88
2020/12/18 06:21:28;;;;;;;5.65;3.00;;;;;;;;;;4984284;28;20081;-92
2020/12/18 06:23:54;;;;;;;8.25;3.05;;;;;;;;;;4979706;28;20046;-86
2020/12/18 06:26:20;;;;;;;4.40;2.75;;;;;;;;;;4980288;28;20050;-87
2020/12/18 06:28:46;;;;;;;3.70;2.40;;;;;;;;;;4981177;28;20054;-81
2020/12/18 06:31:21;;;;;;;5.28;2.72;;;;;;;;;;4979369;28;20053;-80
2020/12/18 06:33:51;;;;;;;4.18;2.28;;;;;;;;;;4982565;28;20058;-80
2020/12/18 06:36:18;;;;;;;4.38;2.45;;;;;;;;;;4984395;28;20042;-81
2020/12/18 06:38:45;;;;;;;4.13;2.53;;;;;;;;;;4976147;28;20389;-82
2020/12/18 06:41:24;;;;;;;4.85;2.60;;;;;;;;;;4981390;28;20508;-84
2020/12/18 06:43:50;;;;;;;3.20;2.15;;;;;;;;;;4980700;28;20055;-85
2020/12/18 06:46:19;;;;;;;4.35;2.28;;;;;;;;;;4985250;28;20054;-84
2020/12/18 06:48:50;;;;;;;4.63;2.58;;;;;;;;;;4979023;28;20560;-81
2020/12/18 06:51:29;;;;;;;4.70;2.47;;;;;;;;;;4984453;28;20064;-81
2020/12/18 06:54:10;;;;;;;3.80;2.15;;;;;;;;;;4983725;28;20055;-81
2020/12/18 06:56:42;;;;;;;4.32;2.47;;;;;;;;;;4981820;28;20136;-80
2020/12/18 06:59:22;;;;;;;4.25;2.45;;;;;;;;;;4978460;28;20054;-81
2020/12/18 07:01:48;;;;;;;4.28;2.42;;;;;;;;;;4980091;28;20050;-79
2020/12/18 07:04:21;;;;;;;4.43;3.13;;;;;;;;;;4984520;28;20492;-79
2020/12/18 07:06:47;;;;;;;6.43;2.40;;;;;;;;;;4978369;28;20081;-76
2020/12/18 07:09:14;;;;;;;4.07;2.30;;;;;;;;;;4981365;28;20047;-76
2020/12/18 07:11:41;;;;;;;3.97;2.55;;;;;;;;;;4979228;28;20054;-77
2020/12/18 07:14:14;;;;;;;3.33;2.28;;;;;;;;;;4977788;28;20047;-77
2020/12/18 07:16:50;;;;;;;7.70;2.35;;;;;;;;;;4980125;28;20058;-77
2020/12/18 07:19:17;;;;;;;3.45;2.33;;;;;;;;;;4977666;28;20054;-78
2020/12/18 07:21:44;;;;;;;4.07;2.80;;;;;;;;;;4980749;28;20051;-75
2020/12/18 07:24:11;;;;;;;6.78;3.22;;;;;;;;;;4980413;28;20057;-75
2020/12/18 07:26:37;;;;;;;6.32;4.07;;;;;;;;;;4980009;28;20069;-75
2020/12/18 07:29:03;;;;;;;4.78;3.08;;;;;;;;;;4985840;28;20058;-78
2020/12/18 07:31:29;;;;;;;7.95;4.70;;;;;;;;;;4981479;28;20061;-76
2020/12/18 07:33:56;;;;;;;8.40;4.13;;;;;;;;;;4977232;28;20051;-78
2020/12/18 07:36:30;;;;;;;10.45;4.65;;;;;;;;;;4975590;28;20061;-78
2020/12/18 07:38:58;;;;;;;8.20;5.55;;;;;;;;;;4977963;28;20133;-78
2020/12/18 07:41:26;;;;;;;7.60;4.78;;;;;;;;;;4980521;28;20057;-78
2020/12/18 07:43:52;;;;;;;9.45;5.38;;;;;;;;;;4977816;28;20038;-77
2020/12/18 07:46:19;;;;;;;8.90;4.50;;;;;;;;;;4979846;28;20057;-78
2020/12/18 07:48:48;;;;;;;9.27;4.82;;;;;;;;;;4974017;28;20468;-78
2020/12/18 07:51:19;;;;;;;7.30;5.07;;;;;;;;;;4977137;28;20069;-78
2020/12/18 07:53:46;;;;;;;6.13;4.65;;;;;;;;;;4982431;28;20057;-79
2020/12/18 07:56:14;;;;;;;7.03;4.38;;;;;;;;;;4979845;28;20415;-78
2020/12/18 07:58:45;;;;;;;8.25;4.45;;;;;;;;;;4978399;28;20066;-78
2020/12/18 08:01:16;;;;;;;7.05;4.85;;;;;;;;;;4980696;28;20046;-78
2020/12/18 08:03:44;;;;;;;8.27;4.68;;;;;;;;;;4974905;28;20068;-77
2020/12/18 08:06:14;;;;;;;12.07;4.05;;;;;;;;;;4975089;28;20047;-75
2020/12/18 08:08:43;;;;;;;6.57;3.78;;;;;;;;;;4981297;28;21007;-76
2020/12/18 08:11:13;;;;;;;6.40;4.07;;;;;;;;;;4979241;28;20047;-75
2020/12/18 08:13:39;;;;;;;;;;;;;;;;;;4979301;28;20049;-76
2020/12/18 08:16:12;;;;;;;9.70;4.30;;;;;;;;;;4982975;28;19926;-77
2020/12/18 08:18:42;;;;;;;8.63;3.83;;;;;;;;;;4977089;28;20892;-78
2020/12/18 08:21:08;;;;;;;5.82;3.75;;;;;;;;;;4977801;28;20050;-76
2020/12/18 08:23:36;;;;;;;11.07;3.47;;;;;;;;;;4977424;28;20038;-77
2020/12/18 08:26:04;;;;;;;7.78;3.72;;;;;;;;;;4980170;28;20431;-77
2020/12/18 08:28:31;;;;;;;7.20;3.20;;;;;;;;;;4978533;28;20050;-77
2020/12/18 08:31:05;;;;;;;6.90;3.88;;;;;;;;;;4979459;28;20053;-78
2020/12/18 08:33:34;;;;;;;5.05;3.08;;;;;;;;;;4973529;28;20046;-78
2020/12/18 08:36:01;;;;;;;11.25;4.30;;;;;;;;;;4980109;28;20061;-77
2020/12/18 08:38:27;;;;;;;4.30;2.67;;;;;;;;;;4974890;28;20046;-78
2020/12/18 08:40:57;;;;;;;4.75;3.20;;;;;;;;;;4977937;28;20043;-79
2020/12/18 08:43:23;;;;;;;8.23;2.97;;;;;;;;;;4978825;28;20054;-78
2020/12/18 08:45:50;;;;;;;5.03;2.92;;;;;;;;;;4982401;28;20096;-77
2020/12/18 08:48:26;;;;;;;4.85;3.00;;;;;;;;;;4972236;28;20055;-78
2020/12/18 08:51:04;;;;;;;4.78;2.70;;;;;;;;;;4975269;28;20102;-78
2020/12/18 08:53:34;;;;;;;4.70;2.75;;;;;;;;;;4977534;28;20419;-78
2020/12/18 08:56:03;;;;;;;3.47;2.30;;;;;;;;;;4981032;28;20122;-78
2020/12/18 08:58:33;;;;;;;5.63;2.60;;;;;;;;;;4972942;28;20053;-78
2020/12/18 09:01:20;;;;;;;6.15;2.72;;;;;;;;;;4981565;28;20050;-78
2020/12/18 09:03:46;;;;;;;5.43;2.80;;;;;;;;;;4982886;28;20054;-77
2020/12/18 09:06:12;;;;;;;6.22;2.50;;;;;;;;;;4981211;28;20053;-77
2020/12/18 09:08:39;;;;;;;4.47;2.45;;;;;;;;;;4977902;28;20054;-75
2020/12/18 09:11:09;;;;;;;5.20;2.47;;;;;;;;;;4980030;28;20085;-77
2020/12/18 09:13:38;;;;;;;9.77;3.42;;;;;;;;;;4981696;28;20412;-77
2020/12/18 09:16:06;;;;;;;4.05;2.70;;;;;;;;;;4979809;28;20053;-78
2020/12/18 09:18:34;;;;;;;4.18;2.25;;;;;;;;;;4973911;28;20402;-77
2020/12/18 09:21:13;;;;;;;3.95;2.05;;;;;;;;;;4973837;28;20057;-77
2020/12/18 09:23:40;;;;;;;4.28;2.00;;;;;;;;;;4973952;28;20062;-77
2020/12/18 09:26:23;;;;;;;9.52;2.83;;;;;;;;;;4976988;28;20137;-77
2020/12/18 09:28:49;;;;;;;5.45;2.15;;;;;;;;;;4978160;28;20065;-77
2020/12/18 09:31:15;;;;;;;5.57;2.47;;;;;;;;;;4980521;28;20073;-78
2020/12/18 09:33:41;;;;;;;3.17;2.20;;;;;;;;;;4973134;28;20769;-77
2020/12/18 09:36:08;;;;;;;4.30;2.55;;;;;;;;;;4977434;28;20054;-78
2020/12/18 09:38:44;;;;;;;5.28;2.30;;;;;;;;;;4981946;28;20105;-77
2020/12/18 09:41:20;;;;;;;6.28;2.08;;;;;;;;;;4976482;28;20058;-78
2020/12/18 09:43:47;;;;;;;3.50;2.10;;;;;;;;;;4977266;28;20081;-79
2020/12/18 09:46:13;;;;;;;3.10;2.10;;;;;;;;;;4972185;28;20089;-79
2020/12/18 09:48:44;;;;;;;4.55;2.55;;;;;;;;;;4978116;28;20073;-79
2020/12/18 09:51:10;;;;;;;3.53;2.20;;;;;;;;;;4981126;28;20057;-80
2020/12/18 09:53:36;;;;;;;4.70;2.38;;;;;;;;;;4979368;28;20054;-78
2020/12/18 09:56:03;;;;;;;5.03;1.92;;;;;;;;;;4975153;28;20100;-79
2020/12/18 09:58:29;;;;;;;7.93;3.38;;;;;;;;;;4977828;28;20054;-79
2020/12/18 10:00:55;;;;;;;3.47;2.08;;;;;;;;;;4975169;28;20047;-80
2020/12/18 10:03:21;;;;;;;5.78;2.55;;;;;;;;;;4976383;28;20054;-79
2020/12/18 10:05:47;;;;;;;3.13;1.73;;;;;;;;;;4975171;28;20057;-79
2020/12/18 10:08:14;;;;;;;4.15;2.05;;;;;;;;;;4977927;28;20050;-80
2020/12/18 10:10:40;;;;;;;3.17;1.90;;;;;;;;;;4978018;28;20086;-80
2020/12/18 10:13:06;;;;;;;3.92;2.15;;;;;;;;;;4978162;28;20058;-80
2020/12/18 10:15:33;;;;;;;5.30;2.15;;;;;;;;;;4973292;28;20501;-79
2020/12/18 10:17:59;;;;;;;3.63;2.22;;;;;;;;;;4976588;28;20051;-78
2020/12/18 10:20:25;;;;;;;4.00;2.67;;;;;;;;;;4971776;28;20397;-78
2020/12/18 10:22:51;;;;;;;4.45;2.50;;;;;;;;;;4979389;28;20069;-78
2020/12/18 10:25:17;;;;;;;5.28;2.22;;;;;;;;;;4978168;28;20050;-79
2020/12/18 10:27:44;;;;;;;4.68;2.28;;;;;;;;;;4971396;28;20046;-78
2020/12/18 10:30:11;;;;;;;4.18;2.35;;;;;;;;;;4978350;28;22338;-77
2020/12/18 10:32:42;;;;;;;4.15;2.30;;;;;;;;;;4977858;28;20046;-78
2020/12/18 10:35:09;;;;;;;6.30;2.67;;;;;;;;;;4978274;28;20073;-77
2020/12/18 10:37:35;;;;;;;4.32;2.75;;;;;;;;;;4979418;28;20042;-78
2020/12/18 10:40:02;;;;;;;5.93;2.15;;;;;;;;;;4979311;28;20068;-79
2020/12/18 10:42:28;;;;;;;5.13;2.70;;;;;;;;;;4978809;28;20063;-79
2020/12/18 10:44:54;;;;;;;4.70;2.17;;;;;;;;;;4979615;28;20047;-77
2020/12/18 10:47:21;;;;;;;4.25;2.30;;;;;;;;;;4976106;28;20100;-77
2020/12/18 10:49:47;;;;;;;4.10;2.30;;;;;;;;;;4971534;28;20054;-77
2020/12/18 10:52:13;;;;;;;4.25;2.45;;;;;;;;;;4976359;28;20144;-74
2020/12/18 10:54:39;;;;;;;4.53;2.10;;;;;;;;;;4977636;28;20556;-76
2020/12/18 10:57:07;;;;;;;4.45;2.35;;;;;;;;;;4976075;28;20051;-76
2020/12/18 10:59:34;;;;;;;6.55;2.55;;;;;;;;;;4980990;28;20645;-76
2020/12/18 11:02:03;;;;;;;4.85;2.20;;;;;;;;;;4983410;28;20050;-76
2020/12/18 11:04:30;;;;;;;5.70;2.63;;;;;;;;;;4987377;28;20054;-76
2020/12/18 11:06:56;;;;;;;5.38;2.53;;;;;;;;;;4981269;28;20050;-77
2020/12/18 11:09:22;;;;;;;4.93;2.67;;;;;;;;;;4978661;28;20058;-77
2020/12/18 11:11:50;;;;;;;4.10;2.60;;;;;;;;;;4985834;28;20057;-77
2020/12/18 11:14:19;;;;;;;5.50;2.92;;;;;;;;;;4976020;28;20054;-75
2020/12/18 11:16:45;;;;;;;7.28;2.63;;;;;;;;;;4985899;28;20054;-77
2020/12/18 11:19:12;;;;;;;6.00;3.08;;;;;;;;;;4977629;28;20057;-75
2020/12/18 11:21:44;;;;;;;5.47;2.53;;;;;;;;;;4979684;28;20086;-77
2020/12/18 11:24:11;;;;;;;5.45;2.90;;;;;;;;;;4982649;28;20051;-76
2020/12/18 11:26:38;;;;;;;4.95;2.50;;;;;;;;;;4979218;28;20132;-76
2020/12/18 11:29:04;;;;;;;5.97;2.58;;;;;;;;;;4985758;28;20054;-76
2020/12/18 11:31:31;;;;;;;7.00;3.72;;;;;;;;;;4975177;28;20046;-76
2020/12/18 11:33:58;;;;;;;5.70;2.78;;;;;;;;;;4976325;28;20484;-75
2020/12/18 11:36:24;;;;;;;6.43;3.17;;;;;;;;;;4980850;28;20653;-74
2020/12/18 11:38:51;;;;;;;7.70;3.10;;;;;;;;;;4982482;28;20061;-75
2020/12/18 11:41:18;;;;;;;5.60;2.80;;;;;;;;;;4977788;28;20046;-74
2020/12/18 11:43:44;;;;;;;7.00;3.10;;;;;;;;;;4978109;28;20050;-75
2020/12/18 11:46:14;;;;;;;6.82;3.40;;;;;;;;;;4978435;28;20500;-74
2020/12/18 11:48:41;;;;;;;6.82;3.97;;;;;;;;;;4978750;28;20054;-74
2020/12/18 11:51:10;;;;;;;8.38;3.55;;;;;;;;;;4973098;28;20042;-74
2020/12/18 11:53:36;;;;;;;5.65;3.75;;;;;;;;;;4977933;28;20050;-74
2020/12/18 11:56:03;;;;;;;6.72;3.20;;;;;;;;;;4983530;28;20121;-74
2020/12/18 11:58:30;;;;;;;6.30;3.38;;;;;;;;;;4978368;28;20149;-74
2020/12/18 12:00:59;;;;;;;5.10;2.85;;;;;;;;;;4983519;28;20050;-75
2020/12/18 12:03:25;;;;;;;6.15;3.08;;;;;;;;;;4978999;28;20129;-74
2020/12/18 12:05:54;;;;;;;8.65;3.67;;;;;;;;;;4978754;28;20050;-74
2020/12/18 12:08:20;;;;;;;5.45;3.28;;;;;;;;;;4978126;28;20132;-74
2020/12/18 12:10:46;;;;;;;5.82;3.47;;;;;;;;;;4978394;28;20057;-75
2020/12/18 12:13:15;;;;;;;6.20;3.15;;;;;;;;;;4981936;28;20523;-75
2020/12/18 12:15:41;;;;;;;5.65;3.22;;;;;;;;;;4981427;28;20055;-74
2020/12/18 12:18:07;;;;;;;5.55;2.95;;;;;;;;;;4980434;28;20043;-74
2020/12/18 12:20:35;;;;;;;4.78;2.90;;;;;;;;;;4979672;28;20125;-75
2020/12/18 12:23:01;;;;;;;6.10;3.42;;;;;;;;;;4981246;28;20053;-75
2020/12/18 12:25:27;;;;;;;4.57;2.50;;;;;;;;;;4979233;28;20491;-75
2020/12/18 12:27:58;;;;;;;5.45;2.88;;;;;;;;;;4979177;28;20054;-75
2020/12/18 12:30:25;;;;;;;5.35;3.67;;;;;;;;;;4982899;28;20049;-75
2020/12/18 12:32:54;;;;;;;5.18;2.53;;;;;;;;;;4980894;28;20102;-75
2020/12/18 12:35:21;;;;;;;4.70;2.40;;;;;;;;;;4979092;28;20061;-75
2020/12/18 12:37:47;;;;;;;4.85;2.40;;;;;;;;;;4980831;28;20042;-75
2020/12/18 12:40:14;;;;;;;5.28;2.50;;;;;;;;;;4982697;28;20050;-75
2020/12/18 12:42:41;;;;;;;5.35;2.65;;;;;;;;;;4978357;28;20092;-74
2020/12/18 12:45:07;;;;;;;4.55;3.05;;;;;;;;;;4979414;28;20050;-74
2020/12/18 12:47:33;;;;;;;4.80;2.63;;;;;;;;;;4980204;28;20467;-75
2020/12/18 12:49:59;;;;;;;5.85;2.80;;;;;;;;;;4983380;28;20046;-73
2020/12/18 12:52:26;;;;;;;6.32;2.50;;;;;;;;;;4975646;28;20385;-74
2020/12/18 12:54:52;;;;;;;9.50;2.25;;;;;;;;;;4981870;28;20042;-74
2020/12/18 12:57:18;;;;;;;3.88;2.30;;;;;;;;;;4974607;28;20046;-73
2020/12/18 12:59:44;;;;;;;5.53;2.40;;;;;;;;;;4976583;28;20058;-73
2020/12/18 13:02:10;;;;;;;7.63;2.45;;;;;;;;;;4975684;28;20137;-76
2020/12/18 13:04:37;;;;;;;5.45;2.40;;;;;;;;;;4979629;28;20511;-76
2020/12/18 13:07:06;;;;;;;5.22;2.58;;;;;;;;;;4977289;28;20097;-76
2020/12/18 13:09:32;;;;;;;4.30;2.30;;;;;;;;;;4981473;28;20043;-75
2020/12/18 13:11:58;;;;;;;5.65;1.90;;;;;;;;;;5396668;23;20067;-74
2020/12/18 13:14:24;;;;;;;3.90;1.90;;;;;;;;;;5035760;28;20464;-77
2020/12/18 13:16:55;;;;;;;4.90;2.08;;;;;;;;;;5039315;28;20077;-74
2020/12/18 13:19:21;;;;;;;4.15;2.05;;;;;;;;;;5040703;28;20410;-76
2020/12/18 13:21:47;;;;;;;5.18;2.35;;;;;;;;;;5035718;28;20049;-77
2020/12/18 13:24:16;;;;;;;7.85;2.38;;;;;;;;;;5043715;28;20491;-76
2020/12/18 13:26:42;;;;;;;9.23;2.58;;;;;;;;;;5037648;28;20046;-76
2020/12/18 13:29:08;;;;;;;6.47;2.28;;;;;;;;;;5036073;28;20054;-77
2020/12/18 13:31:34;;;;;;;3.25;2.00;;;;;;;;;;5039544;28;20041;-77
2020/12/18 13:34:03;;;;;;;5.45;1.95;;;;;;;;;;5037080;28;20056;-76
2020/12/18 13:36:29;;;;;;;5.00;2.00;;;;;;;;;;5036501;28;20056;-76
2020/12/18 13:38:58;;;;;;;7.53;2.38;;;;;;;;;;5037657;28;20049;-76
2020/12/18 13:41:24;;;;;;;5.72;2.25;;;;;;;;;;5042143;28;20049;-77
2020/12/18 13:43:50;;;;;;;4.63;1.80;;;;;;;;;;5036831;28;20455;-76
2020/12/18 13:46:17;;;;;;;6.32;2.53;;;;;;;;;;5035066;28;20042;-76
2020/12/18 13:48:45;;;;;;;6.05;2.28;;;;;;;;;;5038360;28;20131;-76
2020/12/18 13:51:11;;;;;;;4.72;2.35;;;;;;;;;;5031505;28;20053;-76
2020/12/18 13:53:38;;;;;;;5.00;2.13;;;;;;;;;;5037086;28;20044;-76
2020/12/18 13:56:04;;;;;;;4.60;2.72;;;;;;;;;;5035004;28;20465;-75
2020/12/18 13:58:42;;;;;;;5.07;2.40;;;;;;;;;;5033423;28;20475;-76
2020/12/18 14:01:10;;;;;;;4.65;2.05;;;;;;;;;;5040137;28;20053;-76
2020/12/18 14:03:36;;;;;;;5.00;2.25;;;;;;;;;;5037066;28;20124;-76
2020/12/18 14:06:03;;;;;;;4.97;2.53;;;;;;;;;;5034935;28;20050;-76
2020/12/18 14:08:29;;;;;;;4.55;2.20;;;;;;;;;;5030599;28;20132;-76
2020/12/18 14:10:55;;;;;;;3.63;1.73;;;;;;;;;;5049748;28;20049;-76
2020/12/18 14:13:21;;;;;;;4.55;2.47;;;;;;;;;;5040565;28;20064;-76
2020/12/18 14:15:47;;;;;;;4.82;2.08;;;;;;;;;;5040955;28;20148;-74
2020/12/18 14:18:13;;;;;;;4.03;1.75;;;;;;;;;;5038049;28;20049;-75
2020/12/18 14:20:42;;;;;;;4.03;1.80;;;;;;;;;;5037331;28;20058;-75
2020/12/18 14:23:12;;;;;;;4.10;1.83;;;;;;;;;;5039972;28;20041;-76
2020/12/18 14:25:38;;;;;;;3.22;1.85;;;;;;;;;;5032514;28;20041;-76
2020/12/18 14:28:04;;;;;;;3.70;1.40;;;;;;;;;;5038614;28;20053;-76
2020/12/18 14:30:30;;;;;;;3.00;1.60;;;;;;;;;;5036289;28;20049;-76
2020/12/18 14:32:57;;;;;;;3.55;1.60;;;;;;;;;;5039224;28;20545;-75
2020/12/18 14:35:23;;;;;;;4.78;1.92;;;;;;;;;;5033948;28;20055;-75
2020/12/18 14:37:49;;;;;;;4.22;2.05;;;;;;;;;;5046474;28;20048;-76
2020/12/18 14:40:15;;;;;;;5.13;2.10;;;;;;;;;;5036105;28;20053;-75
2020/12/18 14:42:41;;;;;;;5.60;1.98;;;;;;;;;;5040948;28;20076;-77
2020/12/18 14:45:08;;;;;;;3.60;1.83;;;;;;;;;;5041648;28;20414;-78